sensor_id;sensor_type;location;lat;lon;timestamp;P1;durP1;ratioP1;P2;durP2;ratioP2
10226;SDS011;15634;48.766;2.272;2023-06-01T00:01:43;8.15;;;3.38;;
10226;SDS011;15634;48.766;2.272;2023-06-01T00:04:09;6.43;;;3.72;;
10226;SDS011;15634;48.766;2.272;2023-06-01T00:06:36;6.38;;;3.47;;
10226;SDS011;15634;48.766;2.272;2023-06-01T00:09:03;6.50;;;3.85;;
10226;SDS011;15634;48.766;2.272;2023-06-01T00:11:29;7.45;;;3.50;;
10226;SDS011;15634;48.766;2.272;2023-06-01T00:13:57;7.10;;;4.07;;
10226;SDS011;15634;48.766;2.272;2023-06-01T00:16:25;6.97;;;3.70;;
10226;SDS011;15634;48.766;2.272;2023-06-01T00:18:51;9.82;;;3.95;;
10226;SDS011;15634;48.766;2.272;2023-06-01T00:21:21;6.85;;;3.85;;
10226;SDS011;15634;48.766;2.272;2023-06-01T00:23:48;10.93;;;4.40;;
10226;SDS011;15634;48.766;2.272;2023-06-01T00:26:14;10.45;;;4.25;;
10226;SDS011;15634;48.766;2.272;2023-06-01T00:28:41;9.80;;;4.30;;
10226;SDS011;15634;48.766;2.272;2023-06-01T00:31:08;9.23;;;4.30;;
10226;SDS011;15634;48.766;2.272;2023-06-01T00:33:36;10.60;;;4.88;;
10226;SDS011;15634;48.766;2.272;2023-06-01T00:36:03;9.52;;;4.70;;
10226;SDS011;15634;48.766;2.272;2023-06-01T00:38:30;8.85;;;4.50;;
10226;SDS011;15634;48.766;2.272;2023-06-01T00:40:56;9.15;;;4.40;;
10226;SDS011;15634;48.766;2.272;2023-06-01T00:43:23;12.60;;;4.80;;
10226;SDS011;15634;48.766;2.272;2023-06-01T00:45:49;7.85;;;5.05;;
10226;SDS011;15634;48.766;2.272;2023-06-01T00:48:16;13.20;;;4.65;;
10226;SDS011;15634;48.766;2.272;2023-06-01T00:50:44;8.82;;;4.35;;
10226;SDS011;15634;48.766;2.272;2023-06-01T00:53:12;9.70;;;4.65;;
10226;SDS011;15634;48.766;2.272;2023-06-01T00:55:42;10.30;;;4.65;;
10226;SDS011;15634;48.766;2.272;2023-06-01T00:58:09;12.13;;;5.10;;
10226;SDS011;15634;48.766;2.272;2023-06-01T01:00:36;8.32;;;4.28;;
10226;SDS011;15634;48.766;2.272;2023-06-01T01:03:03;14.48;;;4.28;;
10226;SDS011;15634;48.766;2.272;2023-06-01T01:05:34;8.77;;;4.75;;
10226;SDS011;15634;48.766;2.272;2023-06-01T01:08:04;10.98;;;4.63;;
10226;SDS011;15634;48.766;2.272;2023-06-01T01:10:37;9.52;;;4.72;;
10226;SDS011;15634;48.766;2.272;2023-06-01T01:13:06;11.23;;;4.78;;
10226;SDS011;15634;48.766;2.272;2023-06-01T01:15:38;8.65;;;5.15;;
10226;SDS011;15634;48.766;2.272;2023-06-01T01:18:15;11.98;;;5.00;;
10226;SDS011;15634;48.766;2.272;2023-06-01T01:20:46;12.05;;;5.15;;
10226;SDS011;15634;48.766;2.272;2023-06-01T01:26:23;8.65;;;5.10;;
10226;SDS011;15634;48.766;2.272;2023-06-01T01:28:53;14.05;;;5.57;;
10226;SDS011;15634;48.766;2.272;2023-06-01T01:31:24;11.52;;;5.40;;
10226;SDS011;15634;48.766;2.272;2023-06-01T01:33:53;13.63;;;5.18;;
10226;SDS011;15634;48.766;2.272;2023-06-01T01:36:21;13.90;;;5.32;;
10226;SDS011;15634;48.766;2.272;2023-06-01T01:38:48;10.65;;;5.88;;
10226;SDS011;15634;48.766;2.272;2023-06-01T01:41:14;10.40;;;5.53;;
10226;SDS011;15634;48.766;2.272;2023-06-01T01:43:41;10.02;;;5.75;;
10226;SDS011;15634;48.766;2.272;2023-06-01T01:46:13;14.13;;;5.88;;
10226;SDS011;15634;48.766;2.272;2023-06-01T01:48:48;9.63;;;5.75;;
10226;SDS011;15634;48.766;2.272;2023-06-01T01:51:20;15.07;;;5.72;;
10226;SDS011;15634;48.766;2.272;2023-06-01T01:53:53;14.23;;;6.20;;
10226;SDS011;15634;48.766;2.272;2023-06-01T01:56:21;11.30;;;6.20;;
10226;SDS011;15634;48.766;2.272;2023-06-01T01:58:48;19.88;;;6.50;;
10226;SDS011;15634;48.766;2.272;2023-06-01T02:01:17;14.73;;;6.85;;
10226;SDS011;15634;48.766;2.272;2023-06-01T02:03:45;12.75;;;6.88;;
10226;SDS011;15634;48.766;2.272;2023-06-01T02:06:12;16.33;;;6.65;;
10226;SDS011;15634;48.766;2.272;2023-06-01T02:08:39;13.82;;;7.20;;
10226;SDS011;15634;48.766;2.272;2023-06-01T02:11:06;15.05;;;6.95;;
10226;SDS011;15634;48.766;2.272;2023-06-01T02:13:33;15.80;;;6.93;;
10226;SDS011;15634;48.766;2.272;2023-06-01T02:16:00;16.35;;;6.65;;
10226;SDS011;15634;48.766;2.272;2023-06-01T02:18:28;17.13;;;7.18;;
10226;SDS011;15634;48.766;2.272;2023-06-01T02:20:55;13.98;;;8.13;;
10226;SDS011;15634;48.766;2.272;2023-06-01T02:23:22;14.82;;;7.75;;
10226;SDS011;15634;48.766;2.272;2023-06-01T02:25:48;13.18;;;7.40;;
10226;SDS011;15634;48.766;2.272;2023-06-01T02:28:16;15.50;;;7.82;;
10226;SDS011;15634;48.766;2.272;2023-06-01T02:30:43;17.67;;;8.05;;
10226;SDS011;15634;48.766;2.272;2023-06-01T02:33:10;18.85;;;8.68;;
10226;SDS011;15634;48.766;2.272;2023-06-01T02:35:38;18.73;;;8.18;;
10226;SDS011;15634;48.766;2.272;2023-06-01T02:38:05;17.38;;;8.93;;
10226;SDS011;15634;48.766;2.272;2023-06-01T02:40:31;18.42;;;9.05;;
10226;SDS011;15634;48.766;2.272;2023-06-01T02:42:58;18.88;;;9.32;;
10226;SDS011;15634;48.766;2.272;2023-06-01T02:45:26;18.05;;;9.40;;
10226;SDS011;15634;48.766;2.272;2023-06-01T02:47:52;17.17;;;9.57;;
10226;SDS011;15634;48.766;2.272;2023-06-01T02:50:19;21.25;;;10.10;;
10226;SDS011;15634;48.766;2.272;2023-06-01T02:52:47;17.13;;;9.70;;
10226;SDS011;15634;48.766;2.272;2023-06-01T02:55:14;20.05;;;9.27;;
10226;SDS011;15634;48.766;2.272;2023-06-01T02:57:41;18.60;;;9.10;;
10226;SDS011;15634;48.766;2.272;2023-06-01T03:00:08;22.20;;;10.90;;
10226;SDS011;15634;48.766;2.272;2023-06-01T03:02:40;20.40;;;10.57;;
10226;SDS011;15634;48.766;2.272;2023-06-01T03:05:08;18.40;;;10.45;;
10226;SDS011;15634;48.766;2.272;2023-06-01T03:07:38;23.17;;;10.48;;
10226;SDS011;15634;48.766;2.272;2023-06-01T03:10:07;21.65;;;10.43;;
10226;SDS011;15634;48.766;2.272;2023-06-01T03:12:34;20.92;;;10.98;;
10226;SDS011;15634;48.766;2.272;2023-06-01T03:15:01;21.25;;;10.40;;
10226;SDS011;15634;48.766;2.272;2023-06-01T03:17:28;22.38;;;11.18;;
10226;SDS011;15634;48.766;2.272;2023-06-01T03:19:54;21.60;;;10.90;;
10226;SDS011;15634;48.766;2.272;2023-06-01T03:22:21;22.58;;;11.10;;
10226;SDS011;15634;48.766;2.272;2023-06-01T03:24:48;19.73;;;10.73;;
10226;SDS011;15634;48.766;2.272;2023-06-01T03:27:16;22.65;;;11.43;;
10226;SDS011;15634;48.766;2.272;2023-06-01T03:29:44;21.25;;;12.00;;
10226;SDS011;15634;48.766;2.272;2023-06-01T03:32:11;20.13;;;11.50;;
10226;SDS011;15634;48.766;2.272;2023-06-01T03:34:38;23.30;;;11.02;;
10226;SDS011;15634;48.766;2.272;2023-06-01T03:37:05;20.83;;;12.27;;
10226;SDS011;15634;48.766;2.272;2023-06-01T03:39:32;27.23;;;12.10;;
10226;SDS011;15634;48.766;2.272;2023-06-01T03:42:00;21.88;;;12.68;;
10226;SDS011;15634;48.766;2.272;2023-06-01T03:44:28;21.88;;;11.18;;
10226;SDS011;15634;48.766;2.272;2023-06-01T03:46:56;27.30;;;12.20;;
10226;SDS011;15634;48.766;2.272;2023-06-01T03:49:22;22.73;;;12.35;;
10226;SDS011;15634;48.766;2.272;2023-06-01T03:51:49;23.13;;;12.50;;
10226;SDS011;15634;48.766;2.272;2023-06-01T03:54:16;26.15;;;12.75;;
10226;SDS011;15634;48.766;2.272;2023-06-01T03:56:42;25.77;;;12.98;;
10226;SDS011;15634;48.766;2.272;2023-06-01T03:59:09;22.83;;;11.75;;
10226;SDS011;15634;48.766;2.272;2023-06-01T04:01:37;22.95;;;12.32;;
10226;SDS011;15634;48.766;2.272;2023-06-01T04:04:04;25.95;;;13.68;;
10226;SDS011;15634;48.766;2.272;2023-06-01T04:06:33;30.42;;;12.80;;
10226;SDS011;15634;48.766;2.272;2023-06-01T04:09:00;24.65;;;12.60;;
10226;SDS011;15634;48.766;2.272;2023-06-01T04:11:31;24.83;;;13.23;;
10226;SDS011;15634;48.766;2.272;2023-06-01T04:13:58;23.58;;;13.00;;
10226;SDS011;15634;48.766;2.272;2023-06-01T04:16:24;27.25;;;12.45;;
10226;SDS011;15634;48.766;2.272;2023-06-01T04:18:53;24.85;;;13.90;;
10226;SDS011;15634;48.766;2.272;2023-06-01T04:21:20;25.17;;;13.82;;
10226;SDS011;15634;48.766;2.272;2023-06-01T04:23:47;26.63;;;13.60;;
10226;SDS011;15634;48.766;2.272;2023-06-01T04:26:14;23.55;;;13.45;;
10226;SDS011;15634;48.766;2.272;2023-06-01T04:28:40;24.75;;;14.15;;
10226;SDS011;15634;48.766;2.272;2023-06-01T04:31:09;24.77;;;13.48;;
10226;SDS011;15634;48.766;2.272;2023-06-01T04:33:42;26.20;;;14.47;;
10226;SDS011;15634;48.766;2.272;2023-06-01T04:36:11;27.23;;;13.60;;
10226;SDS011;15634;48.766;2.272;2023-06-01T04:38:39;24.98;;;14.20;;
10226;SDS011;15634;48.766;2.272;2023-06-01T04:41:07;28.67;;;13.73;;
10226;SDS011;15634;48.766;2.272;2023-06-01T04:43:35;26.40;;;13.68;;
10226;SDS011;15634;48.766;2.272;2023-06-01T04:46:03;29.73;;;14.35;;
10226;SDS011;15634;48.766;2.272;2023-06-01T04:48:30;24.58;;;13.88;;
10226;SDS011;15634;48.766;2.272;2023-06-01T04:50:57;25.85;;;13.88;;
10226;SDS011;15634;48.766;2.272;2023-06-01T04:53:26;27.27;;;15.30;;
10226;SDS011;15634;48.766;2.272;2023-06-01T04:55:52;25.15;;;13.63;;
10226;SDS011;15634;48.766;2.272;2023-06-01T04:58:21;28.17;;;13.85;;
10226;SDS011;15634;48.766;2.272;2023-06-01T05:00:48;28.92;;;13.93;;
10226;SDS011;15634;48.766;2.272;2023-06-01T05:03:15;25.67;;;14.13;;
10226;SDS011;15634;48.766;2.272;2023-06-01T05:05:42;28.25;;;15.10;;
10226;SDS011;15634;48.766;2.272;2023-06-01T05:08:08;28.25;;;14.95;;
10226;SDS011;15634;48.766;2.272;2023-06-01T05:10:37;31.27;;;14.60;;
10226;SDS011;15634;48.766;2.272;2023-06-01T05:13:04;28.15;;;15.00;;
10226;SDS011;15634;48.766;2.272;2023-06-01T05:15:30;28.50;;;15.30;;
10226;SDS011;15634;48.766;2.272;2023-06-01T05:17:57;23.83;;;15.10;;
10226;SDS011;15634;48.766;2.272;2023-06-01T05:20:24;25.27;;;15.15;;
10226;SDS011;15634;48.766;2.272;2023-06-01T05:22:50;30.30;;;14.85;;
10226;SDS011;15634;48.766;2.272;2023-06-01T05:25:17;28.30;;;15.30;;
10226;SDS011;15634;48.766;2.272;2023-06-01T05:27:45;30.55;;;14.75;;
10226;SDS011;15634;48.766;2.272;2023-06-01T05:30:12;27.48;;;14.73;;
10226;SDS011;15634;48.766;2.272;2023-06-01T05:32:39;24.80;;;14.32;;
10226;SDS011;15634;48.766;2.272;2023-06-01T05:35:06;26.50;;;14.90;;
10226;SDS011;15634;48.766;2.272;2023-06-01T05:37:33;28.80;;;15.13;;
10226;SDS011;15634;48.766;2.272;2023-06-01T05:40:00;24.73;;;14.50;;
10226;SDS011;15634;48.766;2.272;2023-06-01T05:42:28;26.52;;;15.75;;
10226;SDS011;15634;48.766;2.272;2023-06-01T05:44:57;27.38;;;14.82;;
10226;SDS011;15634;48.766;2.272;2023-06-01T05:47:24;30.60;;;16.23;;
10226;SDS011;15634;48.766;2.272;2023-06-01T05:49:51;26.58;;;15.63;;
10226;SDS011;15634;48.766;2.272;2023-06-01T05:52:17;30.38;;;15.23;;
10226;SDS011;15634;48.766;2.272;2023-06-01T05:54:44;28.65;;;15.43;;
10226;SDS011;15634;48.766;2.272;2023-06-01T05:57:11;24.17;;;14.60;;
10226;SDS011;15634;48.766;2.272;2023-06-01T05:59:37;26.35;;;15.20;;
10226;SDS011;15634;48.766;2.272;2023-06-01T06:02:05;30.17;;;15.77;;
10226;SDS011;15634;48.766;2.272;2023-06-01T06:04:32;24.45;;;14.73;;
10226;SDS011;15634;48.766;2.272;2023-06-01T06:06:59;26.45;;;15.05;;
10226;SDS011;15634;48.766;2.272;2023-06-01T06:09:25;28.65;;;15.20;;
10226;SDS011;15634;48.766;2.272;2023-06-01T06:11:52;24.73;;;14.48;;
10226;SDS011;15634;48.766;2.272;2023-06-01T06:14:19;26.00;;;15.25;;
10226;SDS011;15634;48.766;2.272;2023-06-01T06:16:45;34.63;;;16.10;;
10226;SDS011;15634;48.766;2.272;2023-06-01T06:19:13;28.48;;;15.43;;
10226;SDS011;15634;48.766;2.272;2023-06-01T06:21:41;26.75;;;15.57;;
10226;SDS011;15634;48.766;2.272;2023-06-01T06:24:08;28.67;;;15.57;;
10226;SDS011;15634;48.766;2.272;2023-06-01T06:26:34;26.30;;;14.43;;
10226;SDS011;15634;48.766;2.272;2023-06-01T06:29:01;23.83;;;14.43;;
10226;SDS011;15634;48.766;2.272;2023-06-01T06:31:27;26.02;;;15.10;;
10226;SDS011;15634;48.766;2.272;2023-06-01T06:33:54;25.17;;;14.90;;
10226;SDS011;15634;48.766;2.272;2023-06-01T06:36:22;26.10;;;14.45;;
10226;SDS011;15634;48.766;2.272;2023-06-01T06:38:49;29.42;;;14.13;;
10226;SDS011;15634;48.766;2.272;2023-06-01T06:41:16;26.83;;;14.48;;
10226;SDS011;15634;48.766;2.272;2023-06-01T06:43:46;28.27;;;14.70;;
10226;SDS011;15634;48.766;2.272;2023-06-01T06:46:12;26.73;;;14.07;;
10226;SDS011;15634;48.766;2.272;2023-06-01T06:48:39;26.63;;;15.43;;
10226;SDS011;15634;48.766;2.272;2023-06-01T06:51:06;26.25;;;14.27;;
10226;SDS011;15634;48.766;2.272;2023-06-01T06:53:34;28.90;;;15.43;;
10226;SDS011;15634;48.766;2.272;2023-06-01T06:56:00;28.17;;;15.18;;
10226;SDS011;15634;48.766;2.272;2023-06-01T06:58:27;29.13;;;14.70;;
10226;SDS011;15634;48.766;2.272;2023-06-01T07:00:54;24.38;;;14.32;;
10226;SDS011;15634;48.766;2.272;2023-06-01T07:03:21;25.92;;;14.43;;
10226;SDS011;15634;48.766;2.272;2023-06-01T07:05:47;25.45;;;14.38;;
10226;SDS011;15634;48.766;2.272;2023-06-01T07:08:14;28.08;;;14.75;;
10226;SDS011;15634;48.766;2.272;2023-06-01T07:10:43;27.80;;;14.77;;
10226;SDS011;15634;48.766;2.272;2023-06-01T07:13:10;25.35;;;14.48;;
10226;SDS011;15634;48.766;2.272;2023-06-01T07:15:37;25.52;;;14.52;;
10226;SDS011;15634;48.766;2.272;2023-06-01T07:18:04;23.42;;;14.23;;
10226;SDS011;15634;48.766;2.272;2023-06-01T07:20:31;26.55;;;14.52;;
10226;SDS011;15634;48.766;2.272;2023-06-01T07:22:58;25.80;;;14.38;;
10226;SDS011;15634;48.766;2.272;2023-06-01T07:25:24;24.40;;;14.75;;
10226;SDS011;15634;48.766;2.272;2023-06-01T07:27:52;29.73;;;15.15;;
10226;SDS011;15634;48.766;2.272;2023-06-01T07:30:21;28.48;;;15.15;;
10226;SDS011;15634;48.766;2.272;2023-06-01T07:32:48;23.73;;;13.82;;
10226;SDS011;15634;48.766;2.272;2023-06-01T07:35:14;26.50;;;13.80;;
10226;SDS011;15634;48.766;2.272;2023-06-01T07:37:41;24.55;;;14.15;;
10226;SDS011;15634;48.766;2.272;2023-06-01T07:40:08;22.83;;;13.48;;
10226;SDS011;15634;48.766;2.272;2023-06-01T07:42:35;27.45;;;13.75;;
10226;SDS011;15634;48.766;2.272;2023-06-01T07:45:04;26.10;;;13.95;;
10226;SDS011;15634;48.766;2.272;2023-06-01T07:47:33;21.60;;;13.35;;
10226;SDS011;15634;48.766;2.272;2023-06-01T07:50:00;22.70;;;13.95;;
10226;SDS011;15634;48.766;2.272;2023-06-01T16:20:59;9.55;;;5.40;;
10226;SDS011;15634;48.766;2.272;2023-06-01T16:23:25;8.63;;;6.28;;
10226;SDS011;15634;48.766;2.272;2023-06-01T16:25:52;8.73;;;5.70;;
10226;SDS011;15634;48.766;2.272;2023-06-01T16:28:19;12.65;;;5.95;;
10226;SDS011;15634;48.766;2.272;2023-06-01T16:30:45;12.45;;;5.45;;
10226;SDS011;15634;48.766;2.272;2023-06-01T16:33:12;9.10;;;5.50;;
10226;SDS011;15634;48.766;2.272;2023-06-01T16:35:38;7.97;;;5.28;;
10226;SDS011;15634;48.766;2.272;2023-06-01T16:38:07;10.75;;;6.22;;
10226;SDS011;15634;48.766;2.272;2023-06-01T16:40:33;11.80;;;6.30;;
10226;SDS011;15634;48.766;2.272;2023-06-01T16:43:00;10.88;;;6.25;;
10226;SDS011;15634;48.766;2.272;2023-06-01T16:45:27;9.60;;;6.25;;
10226;SDS011;15634;48.766;2.272;2023-06-01T16:47:53;10.02;;;6.35;;
10226;SDS011;15634;48.766;2.272;2023-06-01T16:50:20;9.65;;;6.28;;
10226;SDS011;15634;48.766;2.272;2023-06-01T16:52:46;10.73;;;6.38;;
10226;SDS011;15634;48.766;2.272;2023-06-01T16:55:14;9.50;;;6.32;;
10226;SDS011;15634;48.766;2.272;2023-06-01T16:57:41;11.00;;;6.55;;
10226;SDS011;15634;48.766;2.272;2023-06-01T17:00:08;10.48;;;6.38;;
10226;SDS011;15634;48.766;2.272;2023-06-01T17:02:37;11.15;;;6.70;;
10226;SDS011;15634;48.766;2.272;2023-06-01T17:05:03;12.98;;;6.82;;
10226;SDS011;15634;48.766;2.272;2023-06-01T17:07:31;11.95;;;6.85;;
10226;SDS011;15634;48.766;2.272;2023-06-01T17:09:57;14.48;;;6.65;;
10226;SDS011;15634;48.766;2.272;2023-06-01T17:12:25;13.80;;;6.65;;
10226;SDS011;15634;48.766;2.272;2023-06-01T17:14:52;11.77;;;6.93;;
10226;SDS011;15634;48.766;2.272;2023-06-01T17:17:18;10.05;;;6.20;;
10226;SDS011;15634;48.766;2.272;2023-06-01T17:19:47;10.95;;;6.45;;
10226;SDS011;15634;48.766;2.272;2023-06-01T17:22:14;13.43;;;6.80;;
10226;SDS011;15634;48.766;2.272;2023-06-01T17:24:41;13.38;;;6.80;;
10226;SDS011;15634;48.766;2.272;2023-06-01T17:27:07;10.25;;;6.47;;
10226;SDS011;15634;48.766;2.272;2023-06-01T17:29:35;12.25;;;6.78;;
10226;SDS011;15634;48.766;2.272;2023-06-01T17:32:02;9.88;;;6.80;;
10226;SDS011;15634;48.766;2.272;2023-06-01T17:34:29;11.13;;;6.47;;
10226;SDS011;15634;48.766;2.272;2023-06-01T17:36:56;8.65;;;6.15;;
10226;SDS011;15634;48.766;2.272;2023-06-01T17:39:22;12.57;;;6.68;;
10226;SDS011;15634;48.766;2.272;2023-06-01T17:41:49;11.50;;;6.15;;
10226;SDS011;15634;48.766;2.272;2023-06-01T17:44:17;13.13;;;5.95;;
10226;SDS011;15634;48.766;2.272;2023-06-01T17:46:46;10.85;;;6.13;;
10226;SDS011;15634;48.766;2.272;2023-06-01T17:49:13;11.52;;;6.07;;
10226;SDS011;15634;48.766;2.272;2023-06-01T17:51:40;10.00;;;5.90;;
10226;SDS011;15634;48.766;2.272;2023-06-01T17:54:06;9.30;;;6.20;;
10226;SDS011;15634;48.766;2.272;2023-06-01T17:56:33;11.18;;;6.30;;
10226;SDS011;15634;48.766;2.272;2023-06-01T17:59:00;8.45;;;5.13;;
10226;SDS011;15634;48.766;2.272;2023-06-01T18:01:27;9.57;;;5.22;;
10226;SDS011;15634;48.766;2.272;2023-06-01T18:03:55;7.47;;;4.47;;
10226;SDS011;15634;48.766;2.272;2023-06-01T18:06:22;8.30;;;4.72;;
10226;SDS011;15634;48.766;2.272;2023-06-01T18:08:49;9.68;;;5.50;;
10226;SDS011;15634;48.766;2.272;2023-06-01T18:11:16;10.98;;;6.10;;
10226;SDS011;15634;48.766;2.272;2023-06-01T18:13:43;7.50;;;4.60;;
10226;SDS011;15634;48.766;2.272;2023-06-01T18:16:09;8.02;;;4.88;;
10226;SDS011;15634;48.766;2.272;2023-06-01T18:18:36;15.38;;;6.22;;
10226;SDS011;15634;48.766;2.272;2023-06-01T18:21:04;9.57;;;4.85;;
10226;SDS011;15634;48.766;2.272;2023-06-01T18:23:30;10.68;;;5.57;;
10226;SDS011;15634;48.766;2.272;2023-06-01T18:25:57;9.75;;;5.43;;
10226;SDS011;15634;48.766;2.272;2023-06-01T18:28:24;9.68;;;5.00;;
10226;SDS011;15634;48.766;2.272;2023-06-01T18:30:50;8.10;;;5.13;;
10226;SDS011;15634;48.766;2.272;2023-06-01T18:33:17;12.65;;;6.30;;
10226;SDS011;15634;48.766;2.272;2023-06-01T18:35:43;7.85;;;5.18;;
10226;SDS011;15634;48.766;2.272;2023-06-01T18:38:11;8.98;;;5.18;;
10226;SDS011;15634;48.766;2.272;2023-06-01T18:40:38;9.80;;;4.68;;
10226;SDS011;15634;48.766;2.272;2023-06-01T18:43:04;8.85;;;4.20;;
10226;SDS011;15634;48.766;2.272;2023-06-01T18:45:35;7.95;;;4.43;;
10226;SDS011;15634;48.766;2.272;2023-06-01T18:48:02;8.73;;;4.40;;
10226;SDS011;15634;48.766;2.272;2023-06-01T18:50:29;9.82;;;4.93;;
10226;SDS011;15634;48.766;2.272;2023-06-01T18:52:56;7.22;;;4.55;;
10226;SDS011;15634;48.766;2.272;2023-06-01T18:55:24;16.00;;;8.57;;
10226;SDS011;15634;48.766;2.272;2023-06-01T18:57:51;12.20;;;7.13;;
10226;SDS011;15634;48.766;2.272;2023-06-01T19:00:18;12.77;;;6.22;;
10226;SDS011;15634;48.766;2.272;2023-06-01T19:02:46;25.85;;;13.15;;
10226;SDS011;15634;48.766;2.272;2023-06-01T19:05:15;37.80;;;18.55;;
10226;SDS011;15634;48.766;2.272;2023-06-01T19:10:12;12.57;;;7.68;;
10226;SDS011;15634;48.766;2.272;2023-06-01T19:12:40;11.18;;;6.45;;
10226;SDS011;15634;48.766;2.272;2023-06-01T19:15:07;12.63;;;7.65;;
10226;SDS011;15634;48.766;2.272;2023-06-01T19:17:35;12.38;;;6.68;;
10226;SDS011;15634;48.766;2.272;2023-06-01T19:20:03;8.65;;;5.85;;
10226;SDS011;15634;48.766;2.272;2023-06-01T19:22:30;17.15;;;7.40;;
10226;SDS011;15634;48.766;2.272;2023-06-01T19:24:57;10.18;;;6.22;;
10226;SDS011;15634;48.766;2.272;2023-06-01T19:27:24;11.48;;;7.10;;
10226;SDS011;15634;48.766;2.272;2023-06-01T19:29:52;14.57;;;7.78;;
10226;SDS011;15634;48.766;2.272;2023-06-01T19:32:19;15.27;;;7.47;;
10226;SDS011;15634;48.766;2.272;2023-06-01T19:34:46;11.05;;;6.82;;
10226;SDS011;15634;48.766;2.272;2023-06-01T19:37:12;13.00;;;6.95;;
10226;SDS011;15634;48.766;2.272;2023-06-01T19:39:39;14.18;;;6.82;;
10226;SDS011;15634;48.766;2.272;2023-06-01T19:42:08;11.43;;;6.05;;
10226;SDS011;15634;48.766;2.272;2023-06-01T19:44:46;10.85;;;7.05;;
10226;SDS011;15634;48.766;2.272;2023-06-01T19:47:20;18.05;;;9.85;;
10226;SDS011;15634;48.766;2.272;2023-06-01T19:49:48;13.75;;;7.63;;
10226;SDS011;15634;48.766;2.272;2023-06-01T19:52:14;27.13;;;15.02;;
10226;SDS011;15634;48.766;2.272;2023-06-01T19:54:45;18.52;;;10.10;;
10226;SDS011;15634;48.766;2.272;2023-06-01T19:57:12;25.40;;;12.68;;
10226;SDS011;15634;48.766;2.272;2023-06-01T19:59:39;14.32;;;7.72;;
10226;SDS011;15634;48.766;2.272;2023-06-01T20:02:05;21.65;;;11.50;;
10226;SDS011;15634;48.766;2.272;2023-06-01T20:04:35;19.77;;;10.75;;
10226;SDS011;15634;48.766;2.272;2023-06-01T20:07:02;17.50;;;9.07;;
10226;SDS011;15634;48.766;2.272;2023-06-01T20:09:28;16.10;;;8.05;;
10226;SDS011;15634;48.766;2.272;2023-06-01T20:11:55;14.98;;;7.68;;
10226;SDS011;15634;48.766;2.272;2023-06-01T20:14:23;16.15;;;7.80;;
10226;SDS011;15634;48.766;2.272;2023-06-01T20:16:52;13.50;;;7.57;;
10226;SDS011;15634;48.766;2.272;2023-06-01T20:19:20;16.10;;;8.77;;
10226;SDS011;15634;48.766;2.272;2023-06-01T20:21:49;16.27;;;9.25;;
10226;SDS011;15634;48.766;2.272;2023-06-01T20:24:17;17.27;;;8.57;;
10226;SDS011;15634;48.766;2.272;2023-06-01T20:26:46;13.73;;;8.10;;
10226;SDS011;15634;48.766;2.272;2023-06-01T20:29:13;11.85;;;7.32;;
10226;SDS011;15634;48.766;2.272;2023-06-01T20:31:40;12.40;;;7.85;;
10226;SDS011;15634;48.766;2.272;2023-06-01T20:34:07;14.68;;;7.88;;
10226;SDS011;15634;48.766;2.272;2023-06-01T20:36:35;13.60;;;7.65;;
10226;SDS011;15634;48.766;2.272;2023-06-01T20:39:04;15.07;;;8.13;;
10226;SDS011;15634;48.766;2.272;2023-06-01T20:41:34;12.68;;;7.82;;
10226;SDS011;15634;48.766;2.272;2023-06-01T20:44:02;15.85;;;7.78;;
10226;SDS011;15634;48.766;2.272;2023-06-01T20:46:29;21.73;;;10.30;;
10226;SDS011;15634;48.766;2.272;2023-06-01T20:48:57;17.52;;;8.98;;
10226;SDS011;15634;48.766;2.272;2023-06-01T20:51:25;27.98;;;13.07;;
10226;SDS011;15634;48.766;2.272;2023-06-01T20:53:54;25.17;;;13.15;;
10226;SDS011;15634;48.766;2.272;2023-06-01T20:56:28;21.92;;;11.23;;
10226;SDS011;15634;48.766;2.272;2023-06-01T20:59:00;31.23;;;16.13;;
10226;SDS011;15634;48.766;2.272;2023-06-01T21:01:34;25.83;;;12.60;;
10226;SDS011;15634;48.766;2.272;2023-06-01T21:04:02;27.02;;;14.25;;
10226;SDS011;15634;48.766;2.272;2023-06-01T21:06:30;11.98;;;8.10;;
10226;SDS011;15634;48.766;2.272;2023-06-01T21:08:57;18.40;;;8.75;;
10226;SDS011;15634;48.766;2.272;2023-06-01T21:11:25;15.45;;;7.95;;
10226;SDS011;15634;48.766;2.272;2023-06-01T21:13:54;13.05;;;8.15;;
10226;SDS011;15634;48.766;2.272;2023-06-01T21:16:21;12.73;;;7.80;;
10226;SDS011;15634;48.766;2.272;2023-06-01T21:18:48;15.50;;;7.80;;
10226;SDS011;15634;48.766;2.272;2023-06-01T21:21:14;15.93;;;7.80;;
10226;SDS011;15634;48.766;2.272;2023-06-01T21:23:41;13.90;;;7.28;;
10226;SDS011;15634;48.766;2.272;2023-06-01T21:26:08;11.80;;;7.25;;
10226;SDS011;15634;48.766;2.272;2023-06-01T21:28:35;14.23;;;6.82;;
10226;SDS011;15634;48.766;2.272;2023-06-01T21:31:04;13.65;;;7.10;;
10226;SDS011;15634;48.766;2.272;2023-06-01T21:33:31;13.90;;;6.63;;
10226;SDS011;15634;48.766;2.272;2023-06-01T21:35:57;15.65;;;7.25;;
10226;SDS011;15634;48.766;2.272;2023-06-01T21:38:24;12.68;;;7.03;;
10226;SDS011;15634;48.766;2.272;2023-06-01T21:40:51;15.45;;;6.15;;
10226;SDS011;15634;48.766;2.272;2023-06-01T21:43:20;14.65;;;6.68;;
10226;SDS011;15634;48.766;2.272;2023-06-01T21:45:47;12.10;;;6.88;;
10226;SDS011;15634;48.766;2.272;2023-06-01T21:48:15;12.10;;;6.28;;
10226;SDS011;15634;48.766;2.272;2023-06-01T21:50:43;13.18;;;5.88;;
10226;SDS011;15634;48.766;2.272;2023-06-01T21:53:11;12.23;;;6.45;;
10226;SDS011;15634;48.766;2.272;2023-06-01T21:55:39;13.85;;;6.28;;
10226;SDS011;15634;48.766;2.272;2023-06-01T21:58:07;12.77;;;6.93;;
10226;SDS011;15634;48.766;2.272;2023-06-01T22:00:34;12.50;;;5.93;;
10226;SDS011;15634;48.766;2.272;2023-06-01T22:03:01;12.60;;;5.85;;
10226;SDS011;15634;48.766;2.272;2023-06-01T22:05:34;11.95;;;5.85;;
10226;SDS011;15634;48.766;2.272;2023-06-01T22:08:01;14.30;;;5.97;;
10226;SDS011;15634;48.766;2.272;2023-06-01T22:10:29;11.35;;;6.38;;
10226;SDS011;15634;48.766;2.272;2023-06-01T22:12:56;14.68;;;6.40;;
10226;SDS011;15634;48.766;2.272;2023-06-01T22:15:23;15.98;;;6.20;;
10226;SDS011;15634;48.766;2.272;2023-06-01T22:17:50;12.35;;;5.80;;
10226;SDS011;15634;48.766;2.272;2023-06-01T22:20:17;12.43;;;6.10;;
10226;SDS011;15634;48.766;2.272;2023-06-01T22:22:46;16.40;;;6.25;;
10226;SDS011;15634;48.766;2.272;2023-06-01T22:25:12;12.98;;;6.30;;
10226;SDS011;15634;48.766;2.272;2023-06-01T22:27:39;9.90;;;5.90;;
10226;SDS011;15634;48.766;2.272;2023-06-01T22:30:06;13.38;;;6.65;;
10226;SDS011;15634;48.766;2.272;2023-06-01T22:32:34;9.68;;;5.35;;
10226;SDS011;15634;48.766;2.272;2023-06-01T22:35:01;14.90;;;6.45;;
10226;SDS011;15634;48.766;2.272;2023-06-01T22:37:28;11.27;;;6.15;;
10226;SDS011;15634;48.766;2.272;2023-06-01T22:39:56;11.00;;;5.72;;
10226;SDS011;15634;48.766;2.272;2023-06-01T22:42:23;15.55;;;6.18;;
10226;SDS011;15634;48.766;2.272;2023-06-01T22:44:50;12.13;;;6.30;;
10226;SDS011;15634;48.766;2.272;2023-06-01T22:47:17;10.07;;;5.60;;
10226;SDS011;15634;48.766;2.272;2023-06-01T22:49:44;13.80;;;5.35;;
10226;SDS011;15634;48.766;2.272;2023-06-01T22:52:10;12.32;;;5.90;;
10226;SDS011;15634;48.766;2.272;2023-06-01T22:54:38;13.32;;;6.40;;
10226;SDS011;15634;48.766;2.272;2023-06-01T22:57:07;13.88;;;6.10;;
10226;SDS011;15634;48.766;2.272;2023-06-01T22:59:34;12.27;;;6.40;;
10226;SDS011;15634;48.766;2.272;2023-06-01T23:02:00;13.25;;;5.93;;
10226;SDS011;15634;48.766;2.272;2023-06-01T23:04:27;9.73;;;5.47;;
10226;SDS011;15634;48.766;2.272;2023-06-01T23:06:59;12.25;;;5.97;;